Sao Luis do Paraitinga, Brazil
Current Conditions -  °F | °C
As of 8:00 PM on Friday 28 Nov 2014 (Local Time) from SBGW Reporting Station
Overcast Overcast  
Wind Chill: 75°   Ceiling: 4300
Heat Index: 75°   Visibility: 4mi
Dew Point: 61°   Wind: 3mph
Humidity: 61%   Direction: 130°SE
Pressure: 30.03"   Gusts: NA
Location:  23.23°S, 45.32°W
Report Text: SBGW 282200Z 13003KT 7000 SCT013 OVC043 24/16 Q1017
Loading
Personal Weather Stations






























Interactive Weather Map New forecast layout! Learn more

10-Day Weather Forecast

Advertisements
Track Severe Weather on mobile